메인 페이지
METAR-TAF:

METAR-TAF

공항 :

파나지, 인도

위도: 15-22-51N, 경도: 073-49-53E, 고도: 56m

현재 날씨관측

예보는 1 시간 35분 전, 18:30시(UTC)에 발표되었습니다.
북동3kt
온도 28°C
습도 74%
기압 1013 hPa
시정: 6000m
고도 9000ft 상공 구름 조금

METAR: VOGO 301830Z 04003KT 6000 FEW090 28/23 Q1013 NOSIG

시각: 01:35 (20:05 UTC)

예보

예보는 5 시간 5분 전, 15:00시(UTC)에 발표되었습니다.
예보 대상 시간: 30일 18시부터 01일 03시까지 (UTC)
북동8kt
시정: 6000m
고도 9000ft 상공 구름 조금
고도 22000ft 상공 구름 보통
일시적
30일 22시부터 01일 02시까지 (UTC)
시정: 5000m

TAF: VOGO 301500Z 3018/0103 05008KT 6000 FEW090 SCT220 TEMPO 3022/0102 5000 BR/HZ

4,000개 이상의 공항 관측 자료 및 예보 (METAR 및 TAF 보고).

지도상에서 검색 가능한 기상관측소가 노란 점과 빨간 점으로 표시되어 있습니다.

기상관측소 명을 보려면 표시 위로 마우스를 이동하세요.

날씨 관측과 예보를 보려면 클릭하세요.

지도 변경 : 확대하려면 엑스 표시가 있는 녹색 버튼, 축소하려면 빼기 표시가 있는 녹색 버튼, 다음 페이지의 지도를 보려면 녹색 화살표를 클릭하세요.


METAR-TAF: